Time;durP1;ratioP1;P1;durP2;ratioP2;P2;SDS_P1;SDS_P2;PMS_P1;PMS_P2;Temp;Humidity;BMP_temperature;BMP_pressure;BME280_temperature;BME280_humidity;BME280_pressure;Samples;Min_cycle;Max_cycle;Signal;HPM_P1;HPM_P2
2024/03/22 00:01:48;;;;;;;0.10;0.10;;;;;;;11.57;76.91;101248.94;7359156;19;20082;-63
2024/03/22 00:04:14;;;;;;;0.10;0.10;;;;;;;11.56;77.10;101249.84;7360205;19;19998;-62
2024/03/22 00:06:41;;;;;;;0.10;0.10;;;;;;;11.50;76.88;101236.84;7358744;19;20009;-63
2024/03/22 00:09:07;;;;;;;0.10;0.10;;;;;;;11.55;77.12;101249.84;7363416;19;20002;-62
2024/03/22 00:11:32;;;;;;;0.10;0.10;;;;;;;11.54;77.25;101248.97;7361484;19;20852;-63
2024/03/22 00:13:58;;;;;;;0.10;0.10;;;;;;;11.54;76.68;101245.50;7359924;19;19998;-62
2024/03/22 00:16:23;;;;;;;0.10;0.10;;;;;;;11.51;76.99;101238.59;7366009;19;20003;-63
2024/03/22 00:18:49;;;;;;;0.10;0.10;;;;;;;11.54;77.01;101256.84;7357642;19;20006;-61
2024/03/22 00:24:37;;;;;;;0.10;0.10;;;;;;;11.56;76.48;101270.75;7363426;19;20484;-62
2024/03/22 00:27:02;;;;;;;0.10;0.10;;;;;;;11.48;76.22;101238.63;7357971;19;20094;-61
2024/03/22 00:29:27;;;;;;;0.10;0.10;;;;;;;11.58;76.29;101250.66;7349008;19;20333;-62
2024/03/22 00:31:53;;;;;;;0.10;0.10;;;;;;;11.59;76.11;101268.06;7365118;19;19994;-61
2024/03/22 00:34:19;;;;;;;0.10;0.10;;;;;;;11.57;76.33;101262.03;7360056;19;20006;-63
2024/03/22 00:36:45;;;;;;;0.10;0.10;;;;;;;11.56;76.28;101257.69;7363675;19;20002;-61
2024/03/22 00:39:11;;;;;;;0.20;0.20;;;;;;;11.59;75.92;101268.06;7359702;19;20013;-63
2024/03/22 00:41:36;;;;;;;0.10;0.10;;;;;;;11.60;76.50;101264.56;7366243;19;19999;-63
2024/03/22 00:44:01;;;;;;;0.10;0.10;;;;;;;11.60;76.58;101277.66;7368764;19;19994;-63
2024/03/22 00:46:27;;;;;;;0.10;0.10;;;;;;;11.59;76.15;101268.06;7369313;19;20014;-62
2024/03/22 00:48:52;;;;;;;0.00;0.00;;;;;;;11.58;75.90;101271.59;7368669;19;20015;-63
2024/03/22 00:51:18;;;;;;;0.10;0.10;;;;;;;11.57;76.38;101269.88;7372990;19;20069;-63
2024/03/22 00:53:43;;;;;;;0.10;0.10;;;;;;;11.56;76.02;101276.00;7367347;19;20007;-61
2024/03/22 00:56:08;;;;;;;0.10;0.10;;;;;;;11.54;75.89;101272.53;7369796;19;20002;-62
2024/03/22 00:58:34;;;;;;;0.10;0.10;;;;;;;11.52;76.20;101271.69;7369907;19;20657;-62
2024/03/22 01:00:59;;;;;;;0.10;0.10;;;;;;;11.50;75.85;101278.69;7366986;19;20010;-62
2024/03/22 01:03:25;;;;;;;0.20;0.20;;;;;;;11.48;75.46;101274.41;7369448;19;20022;-62
2024/03/22 01:05:50;;;;;;;0.10;0.10;;;;;;;11.43;76.18;101271.84;7369506;19;20006;-63
2024/03/22 01:08:15;;;;;;;0.10;0.10;;;;;;;11.41;75.59;101282.34;7363533;19;20006;-61
2024/03/22 01:10:41;;;;;;;0.10;0.10;;;;;;;11.39;76.08;101280.63;7368663;19;19999;-63
2024/03/22 01:13:06;;;;;;;0.10;0.10;;;;;;;11.35;76.36;101277.22;7370200;19;20030;-63
2024/03/22 01:15:32;;;;;;;0.10;0.10;;;;;;;11.32;76.04;101284.25;7370715;19;20013;-62
2024/03/22 01:17:57;;;;;;;0.05;0.05;;;;;;;11.25;76.34;101278.25;7365802;19;20027;-62
2024/03/22 01:20:23;;;;;;;0.10;0.10;;;;;;;11.20;75.93;101274.84;7367166;19;20470;-62
2024/03/22 01:22:49;;;;;;;0.10;0.10;;;;;;;11.06;75.79;101250.69;7370308;19;20011;-62
2024/03/22 01:25:14;;;;;;;0.10;0.10;;;;;;;11.18;75.91;101285.31;7369989;19;20010;-62
2024/03/22 01:27:40;;;;;;;0.10;0.10;;;;;;;11.13;76.51;101279.31;7369869;19;20559;-61
2024/03/22 01:30:06;;;;;;;0.10;0.10;;;;;;;11.09;76.39;101277.63;7372011;19;19991;-62
2024/03/22 01:32:31;;;;;;;0.10;0.10;;;;;;;11.05;76.56;101281.19;7369205;19;20023;-61
2024/03/22 01:34:57;;;;;;;0.10;0.10;;;;;;;10.97;76.04;101267.38;7364755;19;20105;-62
2024/03/22 01:37:23;;;;;;;0.10;0.10;;;;;;;10.98;75.79;101268.22;7368510;19;20082;-63
2024/03/22 01:39:48;;;;;;;0.10;0.10;;;;;;;10.93;75.71;101273.53;7367362;19;20377;-61
2024/03/22 01:42:13;;;;;;;0.10;0.10;;;;;;;10.89;76.12;101274.44;7368042;19;20026;-61
2024/03/22 01:44:39;;;;;;;0.10;0.10;;;;;;;10.85;76.33;101278.88;7369786;19;20030;-61
2024/03/22 01:47:04;;;;;;;0.10;0.10;;;;;;;10.77;76.38;101272.03;7361370;19;20645;-63
2024/03/22 01:49:30;;;;;;;0.10;0.10;;;;;;;10.70;76.59;101266.03;7370187;19;20031;-62
2024/03/22 01:51:56;;;;;;;0.10;0.10;;;;;;;10.74;76.30;101277.28;7365847;19;20003;-62
2024/03/22 01:54:21;;;;;;;0.10;0.10;;;;;;;10.71;76.83;101279.97;7365141;19;20030;-61
2024/03/22 01:56:47;;;;;;;0.15;0.15;;;;;;;10.64;76.52;101269.59;7363584;19;20865;-62
2024/03/22 01:59:13;;;;;;;0.10;0.10;;;;;;;10.56;76.68;101261.00;7369874;19;20010;-62
2024/03/22 02:01:39;;;;;;;0.10;0.10;;;;;;;10.55;76.70;101261.88;7368934;19;19999;-62
2024/03/22 02:04:05;;;;;;;0.10;0.10;;;;;;;10.56;76.09;101276.66;7368649;19;20009;-62
2024/03/22 02:06:30;;;;;;;0.00;0.00;;;;;;;10.54;76.42;101272.34;7367244;19;20549;-62
2024/03/22 02:08:57;;;;;;;0.10;0.10;;;;;;;10.51;76.48;101273.25;7365636;19;20094;-61
2024/03/22 02:11:22;;;;;;;0.10;0.10;;;;;;;10.47;76.48;101270.69;7364588;19;20002;-62
2024/03/22 02:13:48;;;;;;;0.10;0.10;;;;;;;10.40;76.64;101254.25;7369274;19;20002;-61
2024/03/22 02:16:13;;;;;;;0.10;0.10;;;;;;;10.45;76.58;101277.69;7366415;19;20003;-62
2024/03/22 02:18:39;;;;;;;0.10;0.10;;;;;;;10.43;76.53;101274.22;7362116;19;20003;-62
2024/03/22 02:21:04;;;;;;;0.10;0.10;;;;;;;10.43;76.99;101267.25;7369763;19;20450;-61
2024/03/22 02:23:37;;;;;;;0.10;0.10;;;;;;;10.43;76.38;101263.78;7364273;19;20007;-62
2024/03/22 02:26:05;;;;;;;0.10;0.10;;;;;;;10.40;76.20;101264.69;7369407;19;20129;-61
2024/03/22 02:28:32;;;;;;;0.00;0.00;;;;;;;10.38;76.56;101266.44;7363513;19;20013;-63
2024/03/22 02:30:57;;;;;;;0.00;0.00;;;;;;;10.36;76.66;101268.22;7368398;19;19998;-62
2024/03/22 02:33:23;;;;;;;0.10;0.10;;;;;;;10.34;76.33;101264.75;7364033;19;20578;-61
2024/03/22 02:35:49;;;;;;;0.10;0.10;;;;;;;10.13;76.55;101234.53;7369086;19;20341;-62
2024/03/22 02:38:15;;;;;;;0.10;0.10;;;;;;;10.30;76.63;101257.88;7367936;19;20037;-62
2024/03/22 02:40:42;;;;;;;0.10;0.10;;;;;;;10.26;76.46;101261.41;7368279;19;20419;-62
2024/03/22 02:43:08;;;;;;;0.10;0.10;;;;;;;10.26;75.95;101261.41;7363891;19;20073;-62
2024/03/22 02:45:33;;;;;;;0.10;0.10;;;;;;;10.24;76.25;101263.16;7368726;19;20073;-62
2024/03/22 02:47:59;;;;;;;0.10;0.10;;;;;;;10.21;76.24;101250.97;7367623;19;20022;-62
2024/03/22 02:50:24;;;;;;;0.10;0.10;;;;;;;10.20;75.87;101256.22;7367743;19;20567;-61
2024/03/22 02:52:50;;;;;;;0.10;0.10;;;;;;;10.18;75.57;101263.19;7367243;19;20013;-62
2024/03/22 02:55:16;;;;;;;0.10;0.10;;;;;;;10.14;76.33;101258.03;7364411;19;20026;-62
2024/03/22 02:57:41;;;;;;;0.10;0.10;;;;;;;10.13;76.26;101271.94;7359790;19;20041;-61
2024/03/22 03:00:07;;;;;;;0.10;0.10;;;;;;;10.11;76.36;101258.06;7364862;19;20098;-62
2024/03/22 03:02:33;;;;;;;0.10;0.10;;;;;;;10.07;76.34;101256.34;7368914;19;20034;-62
2024/03/22 03:04:59;;;;;;;0.10;0.10;;;;;;;9.84;75.91;101225.31;7364207;19;20002;-62
2024/03/22 03:07:25;;;;;;;0.10;0.10;;;;;;;10.07;76.18;101266.78;7362032;19;20034;-62
2024/03/22 03:09:50;;;;;;;0.10;0.10;;;;;;;10.06;76.44;101265.06;7360376;19;20019;-61
2024/03/22 03:12:16;;;;;;;0.10;0.10;;;;;;;10.02;76.61;101252.94;7366581;19;20600;-61
2024/03/22 03:14:41;;;;;;;0.10;0.10;;;;;;;10.04;76.36;101265.97;7364433;19;20006;-61
2024/03/22 03:17:07;;;;;;;0.10;0.10;;;;;;;10.00;76.48;101254.72;7366888;19;20601;-61
2024/03/22 03:19:32;;;;;;;0.10;0.10;;;;;;;10.01;75.88;101261.66;7364478;19;20014;-60
2024/03/22 03:21:58;;;;;;;0.10;0.10;;;;;;;10.00;76.14;101265.16;7365960;19;19999;-61
2024/03/22 03:24:23;;;;;;;0.03;0.03;;;;;;;9.98;76.41;101261.66;7359616;19;19998;-61
2024/03/22 03:26:49;;;;;;;0.10;0.10;;;;;;;9.95;75.79;101256.50;7366700;19;20013;-60
2024/03/22 03:29:14;;;;;;;0.13;0.13;;;;;;;9.95;76.21;101256.50;7363096;19;20058;-61
2024/03/22 03:31:40;;;;;;;0.17;0.17;;;;;;;9.93;76.14;101258.25;7363568;19;20003;-61
2024/03/22 03:34:05;;;;;;;0.10;0.10;;;;;;;9.92;76.06;101259.13;7361044;19;20023;-61
2024/03/22 03:36:31;;;;;;;0.10;0.10;;;;;;;9.91;75.55;101260.03;7362353;19;20103;-62
2024/03/22 03:38:56;;;;;;;0.03;0.03;;;;;;;9.87;75.23;101251.34;7357523;19;20025;-61
2024/03/22 03:41:22;;;;;;;0.10;0.10;;;;;;;9.84;75.72;101255.78;7364495;19;20528;-62
2024/03/22 03:43:47;;;;;;;0.10;0.10;;;;;;;9.83;75.59;101267.06;7364077;19;19999;-62
2024/03/22 03:46:12;;;;;;;0.10;0.10;;;;;;;9.79;76.19;101265.38;7363289;19;20047;-61
2024/03/22 03:48:38;;;;;;;0.10;0.10;;;;;;;9.77;76.04;101261.91;7363622;19;20716;-61
2024/03/22 03:51:03;;;;;;;0.10;0.10;;;;;;;9.74;75.68;101265.44;7364135;19;20003;-62
2024/03/22 03:53:30;;;;;;;0.08;0.08;;;;;;;9.72;75.79;101271.53;7361008;19;19999;-61
2024/03/22 03:55:55;;;;;;;0.10;0.10;;;;;;;9.69;76.29;101264.63;7362639;19;20596;-61
2024/03/22 03:58:21;;;;;;;0.10;0.10;;;;;;;9.67;75.72;101268.09;7365596;19;20543;-62
2024/03/22 04:00:46;;;;;;;0.10;0.10;;;;;;;9.63;75.39;101264.69;7364865;19;20010;-61
2024/03/22 04:03:12;;;;;;;0.10;0.10;;;;;;;9.49;75.13;101256.97;7357494;19;20030;-62
2024/03/22 04:05:37;;;;;;;0.10;0.10;;;;;;;9.61;75.37;101263.81;7365917;19;20011;-61
2024/03/22 04:08:03;;;;;;;0.10;0.10;;;;;;;9.57;75.66;101269.94;7364904;19;20006;-62
2024/03/22 04:10:28;;;;;;;0.00;0.00;;;;;;;9.55;75.20;101269.94;7365096;19;20011;-61
2024/03/22 04:12:53;;;;;;;0.10;0.10;;;;;;;9.52;75.96;101275.19;7356478;19;20062;-62
2024/03/22 04:15:19;;;;;;;0.10;0.10;;;;;;;9.48;75.86;101268.28;7364841;19;20082;-62
2024/03/22 04:17:44;;;;;;;0.10;0.10;;;;;;;9.47;75.49;101276.97;7344712;19;20006;-61
2024/03/22 04:20:11;;;;;;;0.10;0.10;;;;;;;9.46;75.50;101266.56;7372072;19;20014;-60
2024/03/22 04:22:37;;;;;;;0.10;0.10;;;;;;;9.42;75.28;101281.34;7368801;19;20006;-62
2024/03/22 04:25:03;;;;;;;0.10;0.10;;;;;;;9.40;75.77;101293.56;7367574;19;19999;-60
2024/03/22 04:27:28;;;;;;;0.00;0.00;;;;;;;9.38;75.76;101282.28;7372134;19;20025;-62
2024/03/22 04:29:54;;;;;;;0.10;0.10;;;;;;;9.36;75.68;101281.41;7370780;19;20322;-60
2024/03/22 04:32:19;;;;;;;0.10;0.10;;;;;;;9.33;75.61;101286.69;7367887;19;20098;-61
2024/03/22 04:34:44;;;;;;;0.10;0.10;;;;;;;9.30;75.50;101279.72;7367036;19;20014;-61
2024/03/22 04:37:11;;;;;;;0.10;0.10;;;;;;;9.28;75.70;101285.84;7373378;19;20011;-61
2024/03/22 04:39:37;;;;;;;0.03;0.03;;;;;;;9.24;75.79;101297.16;7371295;19;20794;-61
2024/03/22 04:42:03;;;;;;;0.10;0.10;;;;;;;9.22;76.36;101278.06;7368835;19;20585;-61
2024/03/22 04:44:29;;;;;;;0.10;0.10;;;;;;;9.20;75.78;101287.63;7369930;19;19999;-61
2024/03/22 04:46:55;;;;;;;0.10;0.10;;;;;;;9.07;75.62;101277.31;7366741;19;20038;-62
2024/03/22 04:49:20;;;;;;;0.10;0.10;;;;;;;9.03;75.16;101267.78;7362825;19;20010;-61
2024/03/22 04:51:46;;;;;;;0.10;0.10;;;;;;;9.10;75.39;101287.69;7370501;19;20002;-61
2024/03/22 04:54:11;;;;;;;0.10;0.10;;;;;;;9.08;75.40;101296.41;7368070;19;20018;-60
2024/03/22 04:56:36;;;;;;;0.10;0.10;;;;;;;9.05;75.56;101299.03;7369416;19;20018;-61
2024/03/22 04:59:02;;;;;;;0.10;0.10;;;;;;;9.02;75.43;101302.53;7372935;19;19999;-61
2024/03/22 05:01:27;;;;;;;0.10;0.10;;;;;;;8.99;75.27;101286.91;7368746;19;20016;-61
2024/03/22 05:03:53;;;;;;;0.10;0.10;;;;;;;8.97;75.54;101288.69;7369132;19;19994;-61
2024/03/22 05:06:18;;;;;;;0.10;0.10;;;;;;;8.94;75.07;101283.47;7371387;19;20007;-60
2024/03/22 05:08:44;;;;;;;0.10;0.10;;;;;;;8.90;74.96;101278.28;7355896;19;19999;-61
2024/03/22 05:11:09;;;;;;;0.10;0.10;;;;;;;8.88;75.43;101286.13;7369687;19;20011;-61
2024/03/22 05:13:35;;;;;;;0.10;0.10;;;;;;;8.86;75.48;101284.38;7363946;19;20382;-61
2024/03/22 05:16:00;;;;;;;0.10;0.10;;;;;;;8.81;74.93;101274.88;7359514;19;20018;-61
2024/03/22 05:18:25;;;;;;;0.10;0.10;;;;;;;8.80;75.30;101286.16;7369839;19;20353;-61
2024/03/22 05:20:51;;;;;;;0.10;0.10;;;;;;;8.78;75.17;101284.44;7369321;19;19998;-59
2024/03/22 05:23:18;;;;;;;0.10;0.10;;;;;;;8.75;75.41;101282.72;7357961;19;20499;-61
2024/03/22 05:25:43;;;;;;;0.10;0.10;;;;;;;8.74;75.55;101285.34;7368968;19;20006;-61
2024/03/22 05:28:08;;;;;;;0.00;0.00;;;;;;;8.71;75.50;101287.94;7366202;19;20758;-60
2024/03/22 05:30:34;;;;;;;0.10;0.10;;;;;;;8.61;75.64;101278.47;7369798;19;20007;-62
2024/03/22 05:32:59;;;;;;;0.10;0.10;;;;;;;8.68;75.28;101293.19;7369289;19;19998;-60
2024/03/22 05:35:25;;;;;;;0.10;0.10;;;;;;;8.53;75.36;101263.75;7367677;19;19997;-60
2024/03/22 05:37:50;;;;;;;0.10;0.10;;;;;;;8.63;75.37;101284.53;7364536;19;20086;-61
2024/03/22 05:40:16;;;;;;;0.10;0.10;;;;;;;8.62;75.43;101290.59;7369337;19;20090;-60
2024/03/22 05:42:42;;;;;;;0.10;0.10;;;;;;;8.60;75.50;101303.63;7366508;19;19999;-60
2024/03/22 05:45:08;;;;;;;0.10;0.10;;;;;;;8.57;75.44;101299.31;7368822;19;20492;-61
2024/03/22 05:47:34;;;;;;;0.10;0.10;;;;;;;8.55;75.35;101295.84;7366424;19;20010;-62
2024/03/22 05:50:00;;;;;;;0.10;0.10;;;;;;;8.52;75.20;101303.69;7368771;19;20793;-61
2024/03/22 05:52:25;;;;;;;0.00;0.00;;;;;;;8.52;75.62;101305.44;7370378;19;20099;-61
2024/03/22 05:54:51;;;;;;;0.10;0.10;;;;;;;8.48;75.95;101314.97;7369139;19;19998;-60
2024/03/22 05:57:16;;;;;;;0.10;0.10;;;;;;;8.45;75.29;101311.50;7368604;19;20018;-61
2024/03/22 05:59:42;;;;;;;0.00;0.00;;;;;;;8.42;75.75;101307.19;7370275;19;19999;-61
2024/03/22 06:02:07;;;;;;;0.10;0.10;;;;;;;8.42;75.42;101307.19;7366107;19;20818;-61
2024/03/22 06:04:34;;;;;;;0.00;0.00;;;;;;;8.41;75.33;101318.44;7368640;19;20010;-60
2024/03/22 06:07:00;;;;;;;0.10;0.10;;;;;;;8.38;75.18;101317.63;7368848;19;20017;-61
2024/03/22 06:09:36;;;;;;;0.10;0.10;;;;;;;8.36;75.62;101317.59;7368150;19;20006;-60
2024/03/22 06:12:03;;;;;;;0.10;0.10;;;;;;;8.33;75.33;101315.00;7366034;19;20078;-61
2024/03/22 06:14:29;;;;;;;0.05;0.05;;;;;;;8.32;75.60;101310.69;7368338;19;20447;-60
2024/03/22 06:16:54;;;;;;;0.10;0.10;;;;;;;8.29;75.56;101313.28;7365836;19;20071;-61
2024/03/22 06:19:20;;;;;;;0.00;0.00;;;;;;;8.29;75.35;101323.69;7367168;19;20002;-60
2024/03/22 06:21:45;;;;;;;0.08;0.08;;;;;;;8.12;75.27;101299.47;7368876;19;20015;-61
2024/03/22 06:24:11;;;;;;;0.10;0.10;;;;;;;8.13;75.71;101306.41;7369699;19;19999;-61
2024/03/22 06:26:36;;;;;;;0.10;0.10;;;;;;;8.25;75.00;101321.94;7367461;19;20453;-61
2024/03/22 06:29:02;;;;;;;0.08;0.08;;;;;;;8.23;75.00;101319.38;7365659;19;20031;-61
2024/03/22 06:31:27;;;;;;;0.10;0.10;;;;;;;8.22;75.21;101317.66;7365378;19;20085;-62
2024/03/22 06:33:53;;;;;;;0.10;0.10;;;;;;;8.20;75.25;101324.56;7364395;19;20003;-60
2024/03/22 06:36:19;;;;;;;0.08;0.08;;;;;;;8.19;75.30;101321.97;7368468;19;20031;-60
2024/03/22 06:38:44;;;;;;;0.10;0.10;;;;;;;8.18;75.56;101326.31;7368733;19;20109;-61
2024/03/22 06:41:09;;;;;;;0.10;0.10;;;;;;;8.15;75.28;101323.72;7366223;19;20852;-59
2024/03/22 06:43:35;;;;;;;0.10;0.10;;;;;;;8.16;75.27;101328.06;7366336;19;20034;-61
2024/03/22 06:46:00;;;;;;;0.10;0.10;;;;;;;8.13;75.65;101325.47;7367584;19;20018;-61
2024/03/22 06:48:26;;;;;;;0.10;0.10;;;;;;;8.11;75.33;101319.41;7363698;19;20042;-61
2024/03/22 06:50:51;;;;;;;0.10;0.10;;;;;;;8.12;75.13;101330.69;7367516;19;20478;-60
2024/03/22 06:53:16;;;;;;;0.10;0.10;;;;;;;8.11;74.76;101328.94;7344794;19;20039;-60
2024/03/22 06:55:42;;;;;;;0.10;0.10;;;;;;;8.07;75.02;101328.09;7367960;19;20430;-60
2024/03/22 06:58:07;;;;;;;0.10;0.10;;;;;;;8.07;75.09;101336.75;7361136;19;19997;-60
2024/03/22 07:00:34;;;;;;;0.10;0.10;;;;;;;8.06;75.03;101337.63;7367503;19;20559;-60
2024/03/22 07:03:02;;;;;;;0.10;0.10;;;;;;;8.03;75.38;101341.97;7368396;19;20007;-60
2024/03/22 07:05:28;;;;;;;0.10;0.10;;;;;;;8.04;75.27;101341.97;7361212;19;20102;-61
2024/03/22 07:07:55;;;;;;;0.10;0.10;;;;;;;8.03;74.76;101345.44;7364741;19;20445;-61
2024/03/22 07:10:22;;;;;;;0.10;0.10;;;;;;;8.04;75.13;101352.34;7365464;19;20032;-60
2024/03/22 07:12:47;;;;;;;0.10;0.10;;;;;;;8.03;75.06;101347.16;7364561;19;20014;-60
2024/03/22 07:15:13;;;;;;;0.10;0.10;;;;;;;8.02;74.95;101354.09;7364558;19;20007;-61
2024/03/22 07:17:38;;;;;;;0.10;0.10;;;;;;;8.02;75.54;101351.50;7361904;19;20008;-60
2024/03/22 07:20:04;;;;;;;0.05;0.05;;;;;;;8.02;75.35;101353.25;7365023;19;20010;-61
2024/03/22 07:22:30;;;;;;;0.00;0.00;;;;;;;8.04;75.03;101360.16;7362525;19;20027;-61
2024/03/22 07:24:55;;;;;;;0.10;0.10;;;;;;;8.04;75.25;101354.97;7361856;19;20711;-60
2024/03/22 07:27:21;;;;;;;0.10;0.10;;;;;;;8.06;74.82;101349.78;7360692;19;19999;-61
2024/03/22 07:29:46;;;;;;;0.10;0.10;;;;;;;8.06;75.00;101358.44;7363411;19;20517;-61
2024/03/22 07:32:11;;;;;;;0.10;0.10;;;;;;;8.07;74.71;101360.16;7359703;19;20010;-61
2024/03/22 07:34:37;;;;;;;0.10;0.10;;;;;;;8.09;74.92;101369.69;7364793;19;20007;-60
2024/03/22 07:37:03;;;;;;;0.00;0.00;;;;;;;8.10;74.66;101368.81;7358598;19;20061;-61
2024/03/22 07:39:29;;;;;;;0.10;0.10;;;;;;;8.11;74.93;101366.25;7361623;19;20497;-60
2024/03/22 07:41:54;;;;;;;0.10;0.10;;;;;;;8.13;75.07;101380.09;7361531;19;20009;-60
2024/03/22 07:44:20;;;;;;;0.10;0.10;;;;;;;8.16;74.87;101379.22;7362495;19;19995;-61
2024/03/22 07:46:46;;;;;;;0.00;0.00;;;;;;;8.01;74.83;101352.38;7362120;19;20617;-61
2024/03/22 07:49:12;;;;;;;0.10;0.10;;;;;;;8.19;74.79;101379.22;7359533;19;19998;-61
2024/03/22 07:51:38;;;;;;;0.03;0.03;;;;;;;8.22;74.58;101387.03;7360144;19;20066;-60
2024/03/22 07:54:03;;;;;;;0.08;0.08;;;;;;;8.25;74.99;101389.59;7364822;19;20627;-60
2024/03/22 07:56:29;;;;;;;0.10;0.10;;;;;;;8.28;74.76;101392.22;7359218;19;20011;-61
2024/03/22 07:58:55;;;;;;;0.10;0.10;;;;;;;8.31;74.64;101389.59;7365608;19;20018;-60
2024/03/22 08:01:21;;;;;;;0.10;0.10;;;;;;;8.34;74.67;101400.00;7360525;19;20007;-61
2024/03/22 08:03:46;;;;;;;0.10;0.10;;;;;;;8.38;74.48;101400.91;7363393;19;20469;-60
2024/03/22 08:06:11;;;;;;;0.10;0.10;;;;;;;8.42;74.17;101400.88;7364552;19;20006;-61
2024/03/22 08:08:37;;;;;;;0.10;0.10;;;;;;;8.47;74.42;101386.13;7363849;19;20117;-61
2024/03/22 08:11:02;;;;;;;0.03;0.03;;;;;;;8.53;74.17;101391.31;7354214;19;20003;-61
2024/03/22 08:13:28;;;;;;;0.08;0.08;;;;;;;8.60;74.27;101388.69;7364087;19;20007;-61
2024/03/22 08:15:53;;;;;;;0.10;0.10;;;;;;;8.67;74.19;101387.78;7358240;19;20002;-61
2024/03/22 08:18:19;;;;;;;0.10;0.10;;;;;;;8.74;74.43;101379.94;7364373;19;20655;-61
2024/03/22 08:20:44;;;;;;;0.10;0.10;;;;;;;8.81;73.71;101380.78;7364205;19;20103;-60
2024/03/22 08:23:10;;;;;;;0.10;0.10;;;;;;;8.89;73.37;101392.03;7362883;19;20003;-60
2024/03/22 08:25:36;;;;;;;0.10;0.10;;;;;;;8.98;73.77;101381.56;7357706;19;20409;-60
2024/03/22 08:28:02;;;;;;;0.10;0.10;;;;;;;9.09;73.84;101382.38;7361397;19;20040;-61
2024/03/22 08:30:27;;;;;;;0.10;0.10;;;;;;;9.21;73.33;101375.34;7364905;19;20708;-61
2024/03/22 08:32:53;;;;;;;0.10;0.10;;;;;;;9.25;73.46;101362.28;7364695;19;20002;-60
2024/03/22 08:35:18;;;;;;;0.08;0.08;;;;;;;9.42;73.11;101376.94;7359531;19;20044;-61
2024/03/22 08:37:44;;;;;;;0.08;0.08;;;;;;;9.55;73.05;101371.63;7357932;19;20630;-61
2024/03/22 08:40:10;;;;;;;0.10;0.10;;;;;;;9.69;73.02;101373.28;7354202;19;20015;-61
2024/03/22 08:42:36;;;;;;;0.10;0.10;;;;;;;9.83;73.07;101376.63;7357866;19;20010;-60
2024/03/22 08:45:01;;;;;;;0.10;0.10;;;;;;;9.94;73.04;101390.44;7355587;19;20007;-62
2024/03/22 08:47:27;;;;;;;0.15;0.15;;;;;;;10.04;72.38;101372.97;7358341;19;20021;-61
2024/03/22 08:49:52;;;;;;;0.10;0.10;;;;;;;10.13;71.96;101372.84;7357740;19;20577;-61
2024/03/22 08:52:17;;;;;;;0.10;0.10;;;;;;;10.29;72.08;101371.88;7360005;19;20360;-62
2024/03/22 08:54:43;;;;;;;0.00;0.00;;;;;;;10.44;71.57;101380.38;7354765;19;20006;-61
2024/03/22 08:57:08;;;;;;;0.05;0.05;;;;;;;10.58;71.00;101373.25;7364235;19;20022;-61
2024/03/22 08:59:35;;;;;;;0.10;0.10;;;;;;;10.76;71.27;101382.63;7360878;19;20026;-62
2024/03/22 09:02:00;;;;;;;0.10;0.10;;;;;;;10.81;69.88;101366.03;7363935;19;20620;-60
2024/03/22 09:04:25;;;;;;;0.10;0.10;;;;;;;11.06;70.95;101361.31;7366562;19;20603;-61
2024/03/22 09:06:51;;;;;;;0.10;0.10;;;;;;;11.23;69.43;101373.28;7366636;19;20121;-61
2024/03/22 09:09:16;;;;;;;0.10;0.10;;;;;;;11.40;69.41;101377.38;7358866;19;20490;-61
2024/03/22 09:11:42;;;;;;;0.10;0.10;;;;;;;11.52;69.05;101363.25;7362237;19;20010;-60
2024/03/22 09:14:07;;;;;;;0.10;0.10;;;;;;;11.73;68.23;101375.09;7342424;19;20562;-61
2024/03/22 09:16:33;;;;;;;0.10;0.10;;;;;;;11.90;68.57;101378.31;7363010;19;20006;-61
2024/03/22 09:18:58;;;;;;;0.10;0.10;;;;;;;12.04;67.58;101367.63;7366496;19;20014;-62
2024/03/22 09:21:24;;;;;;;0.17;0.17;;;;;;;12.26;67.56;101364.59;7369957;19;20005;-60
2024/03/22 09:23:50;;;;;;;0.00;0.00;;;;;;;12.35;66.31;101362.66;7368311;19;19999;-62
2024/03/22 09:26:15;;;;;;;0.10;0.10;;;;;;;12.56;65.76;101358.75;7365897;19;20010;-62
2024/03/22 09:28:42;;;;;;;0.10;0.10;;;;;;;12.66;65.09;101360.28;7367589;19;20007;-62
2024/03/22 09:31:07;;;;;;;0.10;0.10;;;;;;;12.84;66.36;101359.06;7365495;19;20025;-61
2024/03/22 09:33:33;;;;;;;0.10;0.10;;;;;;;13.05;64.37;101367.34;7368690;19;20486;-61
2024/03/22 09:35:59;;;;;;;0.20;0.20;;;;;;;13.18;63.78;101367.03;7366265;19;20478;-61
2024/03/22 09:38:25;;;;;;;0.10;0.10;;;;;;;13.35;64.56;101371.06;7367575;19;20007;-61
2024/03/22 09:40:54;;;;;;;0.10;0.10;;;;;;;13.52;63.83;101363.63;7367881;19;20451;-61
2024/03/22 09:43:20;;;;;;;0.10;0.10;;;;;;;13.48;63.30;101341.00;7369622;19;20046;-61
2024/03/22 09:45:48;;;;;;;0.10;0.10;;;;;;;13.76;61.77;101372.69;7366866;19;20022;-62
2024/03/22 09:48:14;;;;;;;0.10;0.10;;;;;;;13.75;61.49;101345.56;7360673;19;20018;-62
2024/03/22 09:50:40;;;;;;;0.10;0.10;;;;;;;14.10;60.82;101384.94;7363860;19;20014;-61
2024/03/22 09:53:07;;;;;;;0.10;0.10;;;;;;;14.27;60.60;101370.44;7360397;19;20019;-60
2024/03/22 09:55:36;;;;;;;0.10;0.10;;;;;;;14.44;60.65;101377.00;7343656;19;20015;-62
2024/03/22 09:58:02;;;;;;;0.10;0.10;;;;;;;14.55;59.16;101359.22;7362534;19;20347;-62
2024/03/22 10:00:27;;;;;;;0.10;0.10;;;;;;;14.75;59.30;101374.38;7353437;19;20011;-61
2024/03/22 10:02:53;;;;;;;0.10;0.10;;;;;;;14.94;59.14;101365.03;7366279;19;20035;-62
2024/03/22 10:05:19;;;;;;;0.10;0.10;;;;;;;15.06;57.33;101361.19;7356024;19;20001;-61
2024/03/22 10:07:45;;;;;;;0.10;0.10;;;;;;;15.24;56.65;101363.25;7359669;19;20022;-61
2024/03/22 10:10:10;;;;;;;0.10;0.10;;;;;;;15.40;56.48;101365.38;7360530;19;20017;-61
2024/03/22 10:12:36;;;;;;;0.20;0.20;;;;;;;15.53;57.18;101372.00;7361367;19;20022;-61
2024/03/22 10:15:02;;;;;;;0.10;0.10;;;;;;;15.69;56.07;101359.22;7359053;19;20003;-62
2024/03/22 10:17:29;;;;;;;0.10;0.10;;;;;;;15.88;56.47;101355.06;7360196;19;20388;-62
2024/03/22 10:19:55;;;;;;;0.10;0.10;;;;;;;16.07;54.60;101355.28;7359045;19;20002;-61
2024/03/22 10:22:20;;;;;;;0.10;0.10;;;;;;;16.06;53.14;101328.03;7363336;19;20023;-61
2024/03/22 10:24:46;;;;;;;0.10;0.10;;;;;;;16.33;52.76;101360.47;7365242;19;20003;-61
2024/03/22 10:27:11;;;;;;;0.10;0.10;;;;;;;16.47;52.26;101349.41;7365059;19;20023;-62
2024/03/22 10:29:37;;;;;;;0.10;0.10;;;;;;;16.59;51.81;101348.13;7362222;19;20006;-62
2024/03/22 10:32:03;;;;;;;0.10;0.10;;;;;;;16.63;50.30;101336.53;7362121;19;21761;-62
2024/03/22 10:34:29;;;;;;;0.10;0.10;;;;;;;16.82;51.21;101342.00;7356634;19;20043;-61
2024/03/22 10:36:59;;;;;;;0.10;0.10;;;;;;;16.98;52.35;101337.88;7356102;19;20007;-62
2024/03/22 10:39:26;;;;;;;0.20;0.20;;;;;;;17.05;51.54;101335.84;7359832;19;20086;-62
2024/03/22 10:41:52;;;;;;;0.10;0.10;;;;;;;17.07;50.69;101326.06;7359652;19;19999;-61
2024/03/22 10:44:18;;;;;;;0.10;0.10;;;;;;;17.32;49.78;101342.63;7360851;19;20492;-61
2024/03/22 10:46:45;;;;;;;0.17;0.17;;;;;;;17.53;50.69;101346.16;7356648;19;20775;-60
2024/03/22 10:49:20;;;;;;;0.10;0.10;;;;;;;17.70;52.16;101326.16;7357347;19;20018;-62
2024/03/22 10:51:51;;;;;;;0.10;0.10;;;;;;;18.02;49.88;101348.56;7362648;19;19999;-61
2024/03/22 10:54:20;;;;;;;0.10;0.10;;;;;;;18.21;50.62;101341.56;7362715;19;20386;-61
2024/03/22 10:56:47;;;;;;;0.10;0.10;;;;;;;18.34;48.52;101328.63;7350313;19;20911;-61
2024/03/22 10:59:20;;;;;;;0.10;0.10;;;;;;;18.60;48.19;101319.50;7359394;19;20011;-61
2024/03/22 11:01:46;;;;;;;0.10;0.10;;;;;;;18.76;46.04;101328.50;7356710;19;20002;-62
2024/03/22 11:04:11;;;;;;;0.10;0.10;;;;;;;18.84;46.24;101312.25;7353802;19;20749;-62
2024/03/22 11:06:37;;;;;;;0.10;0.10;;;;;;;19.07;45.78;101319.09;7349291;19;20747;-62
2024/03/22 11:09:06;;;;;;;0.10;0.10;;;;;;;19.25;44.73;101328.78;7341635;19;20024;-61
2024/03/22 11:11:37;;;;;;;0.15;0.15;;;;;;;19.35;44.38;101322.09;7350242;19;20039;-61
2024/03/22 11:14:03;;;;;;;0.10;0.10;;;;;;;19.46;43.51;101313.63;7351177;19;20479;-62
2024/03/22 11:16:29;;;;;;;0.10;0.10;;;;;;;19.69;42.91;101328.41;7351702;19;20002;-63
2024/03/22 11:18:55;;;;;;;0.10;0.10;;;;;;;19.77;43.87;101323.59;7346870;19;20062;-62
2024/03/22 11:21:20;;;;;;;0.10;0.10;;;;;;;19.93;42.49;101327.16;7362197;19;20346;-62
2024/03/22 11:23:46;;;;;;;0.10;0.10;;;;;;;20.06;43.01;101316.75;7365213;19;19998;-62
2024/03/22 11:26:12;;;;;;;0.10;0.10;;;;;;;20.10;42.64;101296.25;7359650;19;20031;-62